Time;durP1;ratioP1;P1;durP2;ratioP2;P2;SDS_P1;SDS_P2;PMS_P1;PMS_P2;Temp;Humidity;BMP_temperature;BMP_pressure;BME280_temperature;BME280_humidity;BME280_pressure;Samples;Min_cycle;Max_cycle;Signal;HPM_P1;HPM_P2
2023/03/01 00:02:41;;;;;;;25.50;12.77;;;;;;;;;;4991887;28;20045;-82
2023/03/01 00:05:07;;;;;;;24.77;13.32;;;;;;;;;;4997352;28;20023;-82
2023/03/01 00:07:33;;;;;;;21.45;11.73;;;;;;;;;;4978194;28;20037;-82
2023/03/01 00:09:59;;;;;;;22.20;12.90;;;;;;;;;;4979907;28;20125;-82
2023/03/01 00:12:25;;;;;;;29.30;13.85;;;;;;;;;;4990931;28;20561;-82
2023/03/01 00:14:51;;;;;;;27.25;13.43;;;;;;;;;;4992348;28;20109;-83
2023/03/01 00:17:17;;;;;;;26.80;13.65;;;;;;;;;;4984782;28;20054;-82
2023/03/01 00:19:43;;;;;;;28.70;14.00;;;;;;;;;;4986513;28;20027;-82
2023/03/01 00:22:09;;;;;;;26.23;14.48;;;;;;;;;;4992095;28;20120;-82
2023/03/01 00:24:35;;;;;;;26.00;13.90;;;;;;;;;;4995597;28;20490;-82
2023/03/01 00:27:01;;;;;;;24.40;12.65;;;;;;;;;;4977868;28;20038;-82
2023/03/01 00:29:27;;;;;;;24.90;13.07;;;;;;;;;;4978273;28;20085;-82
2023/03/01 00:31:53;;;;;;;27.20;13.00;;;;;;;;;;4986228;28;20065;-82
2023/03/01 00:34:19;;;;;;;27.23;13.13;;;;;;;;;;4998481;28;20026;-82
2023/03/01 00:36:45;;;;;;;21.98;13.57;;;;;;;;;;4991016;28;20026;-82
2023/03/01 00:39:13;;;;;;;24.42;13.20;;;;;;;;;;4979722;28;20484;-81
2023/03/01 00:41:40;;;;;;;23.70;13.00;;;;;;;;;;4982109;28;20053;-82
2023/03/01 00:44:06;;;;;;;27.02;14.45;;;;;;;;;;5007660;28;20049;-82
2023/03/01 00:46:33;;;;;;;24.70;13.57;;;;;;;;;;5012961;28;20633;-82
2023/03/01 00:49:01;;;;;;;25.95;13.13;;;;;;;;;;4997390;28;20027;-82
2023/03/01 00:51:28;;;;;;;20.45;12.50;;;;;;;;;;4983883;28;20490;-82
2023/03/01 00:53:56;;;;;;;24.65;13.63;;;;;;;;;;4992104;28;20031;-82
2023/03/01 00:56:22;;;;;;;27.83;14.00;;;;;;;;;;4997071;28;20094;-82
2023/03/01 00:58:48;;;;;;;26.15;13.07;;;;;;;;;;4979690;28;20113;-82
2023/03/01 01:01:19;;;;;;;24.88;12.65;;;;;;;;;;4981574;28;20090;-82
2023/03/01 01:03:53;;;;;;;24.17;12.43;;;;;;;;;;5017732;28;20117;-81
2023/03/01 01:06:21;;;;;;;26.33;12.88;;;;;;;;;;5011406;28;20080;-82
2023/03/01 01:08:48;;;;;;;28.98;13.85;;;;;;;;;;5001968;28;20096;-82
2023/03/01 01:11:14;;;;;;;23.27;13.18;;;;;;;;;;4990331;28;20061;-81
2023/03/01 01:13:40;;;;;;;25.13;14.18;;;;;;;;;;5021848;28;20057;-80
2023/03/01 01:16:07;;;;;;;23.38;12.95;;;;;;;;;;5039375;28;20029;-81
2023/03/01 01:18:33;;;;;;;27.88;13.77;;;;;;;;;;5019139;28;20061;-81
2023/03/01 01:21:04;;;;;;;25.70;12.52;;;;;;;;;;5018895;28;20025;-81
2023/03/01 01:23:30;;;;;;;27.73;13.68;;;;;;;;;;5018308;28;20042;-81
2023/03/01 01:25:56;;;;;;;25.73;13.27;;;;;;;;;;4988670;28;20022;-82
2023/03/01 01:28:22;;;;;;;25.80;13.63;;;;;;;;;;4997735;28;20077;-82
2023/03/01 01:30:48;;;;;;;26.33;13.48;;;;;;;;;;5000505;28;20036;-82
2023/03/01 01:33:14;;;;;;;26.45;12.80;;;;;;;;;;5001097;28;20037;-82
2023/03/01 01:35:39;;;;;;;26.88;13.45;;;;;;;;;;5021238;28;20029;-82
2023/03/01 01:38:05;;;;;;;31.30;13.23;;;;;;;;;;4984953;28;20053;-82
2023/03/01 01:40:31;;;;;;;24.20;13.05;;;;;;;;;;4983582;28;20611;-82
2023/03/01 01:42:57;;;;;;;25.15;12.90;;;;;;;;;;5015771;28;20030;-82
2023/03/01 01:45:34;;;;;;;24.70;13.93;;;;;;;;;;5020509;28;20546;-82
2023/03/01 01:48:05;;;;;;;26.30;12.10;;;;;;;;;;5005523;28;20038;-82
2023/03/01 01:50:37;;;;;;;20.33;12.25;;;;;;;;;;4980785;28;20035;-80
2023/03/01 01:53:05;;;;;;;25.85;12.93;;;;;;;;;;5018843;28;20017;-82
2023/03/01 01:55:31;;;;;;;26.75;12.15;;;;;;;;;;5021881;28;20014;-79
2023/03/01 01:58:00;;;;;;;26.30;13.90;;;;;;;;;;5017958;28;20015;-80
2023/03/01 02:00:30;;;;;;;25.55;12.35;;;;;;;;;;5017279;28;20018;-79
2023/03/01 02:05:59;;;;;;;20.48;12.25;;;;;;;;;;5010936;28;20503;-81
2023/03/01 02:08:27;;;;;;;25.63;13.48;;;;;;;;;;4982692;28;20023;-81
2023/03/01 02:10:55;;;;;;;26.75;13.38;;;;;;;;;;5002071;28;20042;-82
2023/03/01 02:13:21;;;;;;;23.85;12.75;;;;;;;;;;5000926;28;20056;-81
2023/03/01 02:15:47;;;;;;;24.58;13.00;;;;;;;;;;4981316;28;20077;-82
2023/03/01 02:18:15;;;;;;;25.52;13.30;;;;;;;;;;5003585;28;20023;-80
2023/03/01 02:20:41;;;;;;;24.45;13.50;;;;;;;;;;5012662;28;20439;-81
2023/03/01 02:23:08;;;;;;;28.50;13.73;;;;;;;;;;5003575;28;20089;-81
2023/03/01 02:25:42;;;;;;;24.55;12.88;;;;;;;;;;5000999;28;20041;-82
2023/03/01 02:28:08;;;;;;;25.83;13.25;;;;;;;;;;4994714;28;20031;-82
2023/03/01 02:30:34;;;;;;;24.65;13.02;;;;;;;;;;4991051;28;20037;-81
2023/03/01 02:33:04;;;;;;;25.40;13.70;;;;;;;;;;4986425;28;20492;-82
2023/03/01 02:35:35;;;;;;;26.83;12.95;;;;;;;;;;5002813;28;20022;-81
2023/03/01 02:38:02;;;;;;;27.33;13.80;;;;;;;;;;5002259;28;20062;-82
2023/03/01 02:40:30;;;;;;;24.45;12.68;;;;;;;;;;4991821;28;20372;-81
2023/03/01 02:42:59;;;;;;;27.27;14.18;;;;;;;;;;5002357;28;20044;-82
2023/03/01 02:45:25;;;;;;;27.33;14.40;;;;;;;;;;5020437;28;20053;-81
2023/03/01 02:47:55;;;;;;;27.35;13.82;;;;;;;;;;4984405;28;20670;-82
2023/03/01 02:50:23;;;;;;;27.08;14.10;;;;;;;;;;5014849;28;20023;-82
2023/03/01 02:52:56;;;;;;;28.15;13.15;;;;;;;;;;5001015;28;20060;-82
2023/03/01 02:55:23;;;;;;;29.45;14.27;;;;;;;;;;5000398;28;20081;-82
2023/03/01 02:57:50;;;;;;;30.65;14.30;;;;;;;;;;4981660;28;20045;-81
2023/03/01 03:06:25;;;;;;;28.15;14.90;;;;;;;;;;5003318;28;20041;-81
2023/03/01 03:08:51;;;;;;;26.02;14.05;;;;;;;;;;4983648;28;20039;-81
2023/03/01 03:11:17;;;;;;;25.77;13.52;;;;;;;;;;4982252;28;20034;-80
2023/03/01 03:13:47;;;;;;;31.63;14.45;;;;;;;;;;4982955;28;20033;-81
2023/03/01 03:16:13;;;;;;;31.13;15.30;;;;;;;;;;4982614;28;20104;-81
2023/03/01 03:18:42;;;;;;;29.88;15.02;;;;;;;;;;4997665;28;20076;-80
2023/03/01 03:21:10;;;;;;;31.85;14.68;;;;;;;;;;5019945;28;20488;-81
2023/03/01 03:23:36;;;;;;;28.02;15.13;;;;;;;;;;5000778;28;20025;-81
2023/03/01 03:26:03;;;;;;;28.90;15.88;;;;;;;;;;5019132;28;20030;-81
2023/03/01 03:28:30;;;;;;;27.98;16.95;;;;;;;;;;5000991;28;20022;-81
2023/03/01 03:30:56;;;;;;;31.17;15.98;;;;;;;;;;5019534;28;20112;-81
2023/03/01 03:33:22;;;;;;;34.28;16.58;;;;;;;;;;5019027;28;20022;-81
2023/03/01 03:35:50;;;;;;;29.58;15.52;;;;;;;;;;5002054;28;20026;-81
2023/03/01 03:38:18;;;;;;;32.90;16.17;;;;;;;;;;4991779;28;20569;-81
2023/03/01 03:41:07;;;;;;;34.47;17.30;;;;;;;;;;5018631;28;20022;-83
2023/03/01 03:43:34;;;;;;;29.50;15.70;;;;;;;;;;4958986;28;20107;-81
2023/03/01 03:46:00;;;;;;;35.22;15.90;;;;;;;;;;4974321;28;20492;-81
2023/03/01 03:48:27;;;;;;;34.25;15.20;;;;;;;;;;4999356;28;20030;-81
2023/03/01 03:50:54;;;;;;;32.60;16.80;;;;;;;;;;5003362;28;20030;-81
2023/03/01 03:53:20;;;;;;;36.95;17.20;;;;;;;;;;4980158;28;20099;-80
2023/03/01 03:55:49;;;;;;;37.42;16.00;;;;;;;;;;4981103;28;20027;-80
2023/03/01 03:58:16;;;;;;;28.50;17.08;;;;;;;;;;4977633;28;20096;-81
2023/03/01 04:00:43;;;;;;;31.52;16.92;;;;;;;;;;4978319;28;20030;-81
2023/03/01 04:03:09;;;;;;;36.58;16.55;;;;;;;;;;4979338;28;20094;-81
2023/03/01 04:05:36;;;;;;;31.83;16.20;;;;;;;;;;4978863;28;20046;-81
2023/03/01 04:08:03;;;;;;;30.27;16.75;;;;;;;;;;4979507;28;20114;-81
2023/03/01 04:10:37;;;;;;;27.48;15.63;;;;;;;;;;4978619;28;20040;-81
2023/03/01 04:13:03;;;;;;;31.23;15.57;;;;;;;;;;4977766;28;20042;-80
2023/03/01 04:15:29;;;;;;;31.00;15.77;;;;;;;;;;4978158;28;20019;-81
2023/03/01 04:17:55;;;;;;;32.83;15.82;;;;;;;;;;4978131;28;20086;-81
2023/03/01 04:20:35;;;;;;;32.90;15.88;;;;;;;;;;4981377;28;20019;-80
2023/03/01 04:26:04;;;;;;;26.75;14.70;;;;;;;;;;4979373;28;20037;-81
2023/03/01 04:28:35;;;;;;;32.20;16.23;;;;;;;;;;4979083;28;20034;-80
2023/03/01 04:31:12;;;;;;;29.60;15.35;;;;;;;;;;4979289;28;20046;-80
2023/03/01 04:33:47;;;;;;;29.63;14.60;;;;;;;;;;4979126;28;20018;-81
2023/03/01 04:36:14;;;;;;;29.00;16.73;;;;;;;;;;4982388;28;20026;-81
2023/03/01 04:38:40;;;;;;;30.00;15.77;;;;;;;;;;4980335;28;20038;-81
2023/03/01 04:41:07;;;;;;;28.45;16.08;;;;;;;;;;4979584;28;20037;-81
2023/03/01 04:43:34;;;;;;;30.17;15.82;;;;;;;;;;4984638;28;20045;-80
2023/03/01 04:46:04;;;;;;;29.83;16.15;;;;;;;;;;4996463;28;20060;-80
2023/03/01 04:48:31;;;;;;;26.63;13.93;;;;;;;;;;4983300;28;20046;-80
2023/03/01 04:50:58;;;;;;;29.17;15.70;;;;;;;;;;4998873;28;20022;-80
2023/03/01 04:53:24;;;;;;;30.38;16.45;;;;;;;;;;4984870;28;20041;-80
2023/03/01 04:55:50;;;;;;;28.42;15.73;;;;;;;;;;5001929;28;20109;-81
2023/03/01 04:58:16;;;;;;;30.77;16.25;;;;;;;;;;4980524;28;20546;-81
2023/03/01 05:00:42;;;;;;;31.02;15.43;;;;;;;;;;4998805;28;20058;-81
2023/03/01 05:03:09;;;;;;;31.60;16.83;;;;;;;;;;4980946;28;20027;-80
2023/03/01 05:05:36;;;;;;;29.75;14.45;;;;;;;;;;4999763;28;20022;-80
2023/03/01 05:08:04;;;;;;;29.67;15.45;;;;;;;;;;4980978;28;20038;-80
2023/03/01 05:10:31;;;;;;;30.17;14.77;;;;;;;;;;4980831;28;20347;-81
2023/03/01 05:12:58;;;;;;;29.88;15.73;;;;;;;;;;4998482;28;20361;-80
2023/03/01 05:15:25;;;;;;;28.60;15.55;;;;;;;;;;4983282;28;20126;-80
2023/03/01 05:20:58;;;;;;;31.75;15.52;;;;;;;;;;4998844;28;20037;-81
2023/03/01 05:23:24;;;;;;;25.35;13.40;;;;;;;;;;4993381;28;20072;-81
2023/03/01 05:25:52;;;;;;;27.77;15.55;;;;;;;;;;5003424;28;20105;-81
2023/03/01 05:28:19;;;;;;;27.10;15.23;;;;;;;;;;4980848;28;20027;-80
2023/03/01 05:30:45;;;;;;;29.67;15.02;;;;;;;;;;4979330;28;20036;-81
2023/03/01 05:33:13;;;;;;;31.00;15.70;;;;;;;;;;4977764;28;20034;-83
2023/03/01 05:35:43;;;;;;;32.45;15.57;;;;;;;;;;4988850;28;20077;-82
2023/03/01 05:38:15;;;;;;;29.40;15.50;;;;;;;;;;4983085;28;20046;-83
2023/03/01 05:40:45;;;;;;;27.42;15.63;;;;;;;;;;4978764;28;20112;-81
2023/03/01 05:43:11;;;;;;;28.50;14.63;;;;;;;;;;4986046;28;20476;-83
2023/03/01 05:45:38;;;;;;;28.35;14.60;;;;;;;;;;4996850;28;20070;-80
2023/03/01 05:48:04;;;;;;;29.30;14.68;;;;;;;;;;4999740;28;20382;-81
2023/03/01 05:50:33;;;;;;;26.92;15.00;;;;;;;;;;5001277;28;20029;-81
2023/03/01 05:52:59;;;;;;;29.20;15.70;;;;;;;;;;4999555;28;20030;-82
2023/03/01 05:55:25;;;;;;;29.67;14.52;;;;;;;;;;4997991;28;20026;-83
2023/03/01 05:57:51;;;;;;;28.92;15.02;;;;;;;;;;4992037;28;20503;-83
2023/03/01 06:00:18;;;;;;;26.00;14.18;;;;;;;;;;5000478;28;20027;-81
2023/03/01 06:02:45;;;;;;;25.20;13.32;;;;;;;;;;5000012;28;20027;-81
2023/03/01 06:05:12;;;;;;;28.63;15.13;;;;;;;;;;4983735;28;20468;-81
2023/03/01 06:07:38;;;;;;;30.38;14.60;;;;;;;;;;4981540;28;20061;-81
2023/03/01 06:10:04;;;;;;;26.30;14.50;;;;;;;;;;4998768;28;20030;-81
2023/03/01 06:12:31;;;;;;;28.10;15.57;;;;;;;;;;4980825;28;20026;-81
2023/03/01 06:14:57;;;;;;;25.67;13.15;;;;;;;;;;4984026;28;20022;-81
2023/03/01 06:17:23;;;;;;;28.08;15.27;;;;;;;;;;4983778;28;20048;-81
2023/03/01 06:19:49;;;;;;;30.15;16.50;;;;;;;;;;5008407;28;20073;-81
2023/03/01 06:22:15;;;;;;;26.15;14.40;;;;;;;;;;5008526;28;20053;-81
2023/03/01 06:24:41;;;;;;;25.27;14.98;;;;;;;;;;5000635;28;20084;-81
2023/03/01 06:27:08;;;;;;;27.63;15.02;;;;;;;;;;5006355;28;20042;-82
2023/03/01 06:29:34;;;;;;;32.03;15.55;;;;;;;;;;5008474;28;20022;-82
2023/03/01 06:32:00;;;;;;;27.58;15.25;;;;;;;;;;4996681;28;20035;-82
2023/03/01 06:34:26;;;;;;;29.77;16.67;;;;;;;;;;5014053;28;20122;-83
2023/03/01 06:36:52;;;;;;;29.42;15.32;;;;;;;;;;5022811;28;20030;-82
2023/03/01 06:39:18;;;;;;;28.13;15.60;;;;;;;;;;5023645;28;20479;-83
2023/03/01 06:41:44;;;;;;;28.90;15.57;;;;;;;;;;4997635;28;20042;-82
2023/03/01 06:44:10;;;;;;;28.52;15.50;;;;;;;;;;5007289;28;20053;-83
2023/03/01 06:46:36;;;;;;;27.83;14.95;;;;;;;;;;5003174;28;20431;-83
2023/03/01 06:49:07;;;;;;;31.45;15.30;;;;;;;;;;5003213;28;20048;-82
2023/03/01 06:51:33;;;;;;;29.55;16.38;;;;;;;;;;4988943;28;20034;-83
2023/03/01 06:53:59;;;;;;;28.67;15.68;;;;;;;;;;4986169;28;20113;-83
2023/03/01 06:56:25;;;;;;;35.33;17.08;;;;;;;;;;4983188;28;20022;-82
2023/03/01 06:58:51;;;;;;;29.42;15.00;;;;;;;;;;5012311;28;20076;-83
2023/03/01 07:01:17;;;;;;;29.08;16.02;;;;;;;;;;4997810;28;20504;-83
2023/03/01 07:03:44;;;;;;;29.90;15.65;;;;;;;;;;4981510;28;20037;-82
2023/03/01 07:06:10;;;;;;;27.35;16.20;;;;;;;;;;4981667;28;20160;-82
2023/03/01 07:08:36;;;;;;;31.05;17.30;;;;;;;;;;5000398;28;20030;-82
2023/03/01 07:11:03;;;;;;;30.83;17.08;;;;;;;;;;4980449;28;20077;-83
2023/03/01 07:13:29;;;;;;;24.25;15.52;;;;;;;;;;4979610;28;20073;-82
2023/03/01 07:15:55;;;;;;;29.40;16.10;;;;;;;;;;4985198;28;20015;-82
2023/03/01 07:18:21;;;;;;;30.13;15.60;;;;;;;;;;4979742;28;20385;-82
2023/03/01 07:20:49;;;;;;;32.95;15.88;;;;;;;;;;4995731;28;20078;-83
2023/03/01 07:23:15;;;;;;;30.42;17.63;;;;;;;;;;4997760;28;20037;-82
2023/03/01 07:25:41;;;;;;;32.53;16.73;;;;;;;;;;4980785;28;20037;-82
2023/03/01 07:28:07;;;;;;;30.75;16.73;;;;;;;;;;4998140;28;20030;-83
2023/03/01 07:30:33;;;;;;;31.10;16.38;;;;;;;;;;4993229;28;20046;-82
2023/03/01 07:32:59;;;;;;;27.58;16.00;;;;;;;;;;5008412;28;20389;-82
2023/03/01 07:35:26;;;;;;;33.42;16.40;;;;;;;;;;5014757;28;20041;-82
2023/03/01 07:37:52;;;;;;;29.42;16.88;;;;;;;;;;4997008;28;20033;-82
2023/03/01 07:40:19;;;;;;;31.77;17.50;;;;;;;;;;4997238;28;20022;-81
2023/03/01 07:42:44;;;;;;;33.13;16.63;;;;;;;;;;4997500;28;20030;-82
2023/03/01 07:45:11;;;;;;;29.33;15.55;;;;;;;;;;4998186;28;20051;-82
2023/03/01 07:47:37;;;;;;;28.35;15.43;;;;;;;;;;4998747;28;20057;-82
2023/03/01 07:50:03;;;;;;;27.52;14.88;;;;;;;;;;5004426;28;20369;-82
2023/03/01 07:52:30;;;;;;;30.70;15.90;;;;;;;;;;4999964;28;20041;-82
2023/03/01 07:54:56;;;;;;;28.13;15.60;;;;;;;;;;4986265;28;20026;-82
2023/03/01 07:57:23;;;;;;;30.13;16.35;;;;;;;;;;4990731;28;20027;-82
2023/03/01 07:59:48;;;;;;;29.35;17.23;;;;;;;;;;4980799;28;20034;-82
2023/03/01 08:02:15;;;;;;;27.58;16.40;;;;;;;;;;4980630;28;20053;-82
2023/03/01 08:04:41;;;;;;;31.75;17.15;;;;;;;;;;5012981;28;20026;-82
2023/03/01 08:07:07;;;;;;;29.48;16.00;;;;;;;;;;4992495;28;20026;-82
2023/03/01 08:09:35;;;;;;;29.75;16.50;;;;;;;;;;5013652;28;20084;-82
2023/03/01 08:12:01;;;;;;;29.55;14.95;;;;;;;;;;5000876;28;20026;-82
2023/03/01 08:14:27;;;;;;;29.67;15.30;;;;;;;;;;4995906;28;20041;-82
2023/03/01 08:16:54;;;;;;;33.08;16.85;;;;;;;;;;5013382;28;20031;-82
2023/03/01 08:22:24;;;;;;;37.33;18.67;;;;;;;;;;4999556;28;20033;-82
2023/03/01 08:24:50;;;;;;;33.60;19.65;;;;;;;;;;4979910;28;20026;-83
2023/03/01 08:27:17;;;;;;;38.13;21.52;;;;;;;;;;4999744;28;20026;-82
2023/03/01 08:29:43;;;;;;;29.15;18.60;;;;;;;;;;5006633;28;20038;-83
2023/03/01 08:32:09;;;;;;;32.95;18.20;;;;;;;;;;5015922;28;20504;-83
2023/03/01 08:34:35;;;;;;;30.52;16.83;;;;;;;;;;4997697;28;20086;-83
2023/03/01 08:37:02;;;;;;;36.92;19.05;;;;;;;;;;4980113;28;20026;-82
2023/03/01 08:39:28;;;;;;;35.10;17.90;;;;;;;;;;4997087;28;21068;-82
2023/03/01 08:41:54;;;;;;;32.88;17.98;;;;;;;;;;4980096;28;20025;-82
2023/03/01 08:44:20;;;;;;;31.38;18.17;;;;;;;;;;4987160;28;20057;-82
2023/03/01 08:46:47;;;;;;;30.77;16.38;;;;;;;;;;4996147;28;20040;-82
2023/03/01 08:49:15;;;;;;;33.13;18.08;;;;;;;;;;4988156;28;20030;-80
2023/03/01 08:51:41;;;;;;;32.10;17.58;;;;;;;;;;4995568;28;20030;-80
2023/03/01 08:54:10;;;;;;;28.02;16.42;;;;;;;;;;5003080;28;20014;-81
2023/03/01 08:56:36;;;;;;;27.88;17.30;;;;;;;;;;5003547;28;20023;-81
2023/03/01 08:59:03;;;;;;;28.52;16.63;;;;;;;;;;4995522;28;20018;-80
2023/03/01 09:01:29;;;;;;;33.00;17.33;;;;;;;;;;4978049;28;20054;-82
2023/03/01 09:03:55;;;;;;;32.38;17.30;;;;;;;;;;4982872;28;20019;-81
2023/03/01 09:06:22;;;;;;;28.75;17.25;;;;;;;;;;4992823;28;20079;-82
2023/03/01 09:08:49;;;;;;;29.00;16.90;;;;;;;;;;4976370;28;20038;-82
2023/03/01 09:11:19;;;;;;;27.50;17.35;;;;;;;;;;4976642;28;20023;-81
2023/03/01 09:13:46;;;;;;;30.88;18.40;;;;;;;;;;4983579;28;20118;-82
2023/03/01 09:16:13;;;;;;;32.42;16.63;;;;;;;;;;4995349;28;20114;-82
2023/03/01 09:18:39;;;;;;;29.30;16.85;;;;;;;;;;4976822;28;20031;-82
2023/03/01 09:21:13;;;;;;;30.15;16.70;;;;;;;;;;4977297;28;20038;-82
2023/03/01 09:23:41;;;;;;;30.75;16.35;;;;;;;;;;4991936;28;20018;-80
2023/03/01 09:26:08;;;;;;;28.92;17.00;;;;;;;;;;5017231;28;20019;-80
2023/03/01 09:28:34;;;;;;;32.63;16.77;;;;;;;;;;5014011;28;20027;-81
2023/03/01 09:31:01;;;;;;;25.98;15.10;;;;;;;;;;4997768;28;20011;-81
2023/03/01 09:33:28;;;;;;;26.95;16.25;;;;;;;;;;4984354;28;20026;-82
2023/03/01 09:36:05;;;;;;;28.95;15.60;;;;;;;;;;4989392;28;20122;-82
2023/03/01 09:38:31;;;;;;;26.15;15.23;;;;;;;;;;4980942;28;20417;-82
2023/03/01 09:40:57;;;;;;;30.63;17.05;;;;;;;;;;4981808;28;20030;-81
2023/03/01 09:43:42;;;;;;;29.23;17.33;;;;;;;;;;4983215;28;20104;-82
2023/03/01 09:46:10;;;;;;;27.75;16.15;;;;;;;;;;5008530;28;20157;-82
2023/03/01 09:48:59;;;;;;;29.75;15.90;;;;;;;;;;5004190;28;20033;-82
2023/03/01 09:51:32;;;;;;;32.88;16.58;;;;;;;;;;4999380;28;20334;-82
2023/03/01 09:54:00;;;;;;;28.80;16.60;;;;;;;;;;4996113;28;20045;-81
2023/03/01 09:56:29;;;;;;;27.50;15.65;;;;;;;;;;4993811;28;20018;-82
2023/03/01 09:59:14;;;;;;;36.10;19.17;;;;;;;;;;5006559;28;20021;-82
2023/03/01 10:01:49;;;;;;;37.63;17.42;;;;;;;;;;5004474;28;20025;-82
2023/03/01 10:04:28;;;;;;;29.05;16.25;;;;;;;;;;4997343;28;20070;-82
2023/03/01 10:07:12;;;;;;;32.08;16.50;;;;;;;;;;5005947;28;20038;-82
2023/03/01 10:09:40;;;;;;;34.95;18.02;;;;;;;;;;4999521;28;20096;-82
2023/03/01 10:12:09;;;;;;;39.63;19.13;;;;;;;;;;4996597;28;20041;-82
2023/03/01 10:14:35;;;;;;;33.00;16.42;;;;;;;;;;5013403;28;20543;-81
2023/03/01 10:17:09;;;;;;;25.20;15.32;;;;;;;;;;4985722;28;20104;-81
2023/03/01 10:19:48;;;;;;;25.77;15.65;;;;;;;;;;5000686;28;20026;-81
2023/03/01 10:22:15;;;;;;;31.42;16.92;;;;;;;;;;4982381;28;20026;-81
2023/03/01 10:24:41;;;;;;;29.75;15.20;;;;;;;;;;4981857;28;20070;-81
2023/03/01 10:27:28;;;;;;;26.33;16.85;;;;;;;;;;4987696;28;20038;-82
2023/03/01 10:30:11;;;;;;;25.05;14.00;;;;;;;;;;4972594;28;20030;-82
2023/03/01 10:32:37;;;;;;;29.73;16.80;;;;;;;;;;5000366;28;20113;-81
2023/03/01 10:35:15;;;;;;;24.25;14.65;;;;;;;;;;5002504;28;20033;-82
2023/03/01 10:37:56;;;;;;;30.75;16.17;;;;;;;;;;5002853;28;20030;-81
2023/03/01 10:40:22;;;;;;;24.92;13.23;;;;;;;;;;5000026;28;20037;-81
2023/03/01 10:42:49;;;;;;;24.58;14.00;;;;;;;;;;5000008;28;20022;-81
2023/03/01 10:45:35;;;;;;;22.85;14.25;;;;;;;;;;5003457;28;20038;-81
2023/03/01 10:48:14;;;;;;;28.65;15.00;;;;;;;;;;4985260;28;20463;-81
2023/03/01 10:50:47;;;;;;;24.70;12.65;;;;;;;;;;4983224;28;20101;-80
2023/03/01 10:53:24;;;;;;;23.92;12.88;;;;;;;;;;5008638;28;20518;-81
2023/03/01 10:55:57;;;;;;;20.73;12.15;;;;;;;;;;4989573;28;20077;-81
2023/03/01 10:58:23;;;;;;;20.48;11.55;;;;;;;;;;4982157;28;20034;-81
2023/03/01 11:01:06;;;;;;;21.77;12.25;;;;;;;;;;4993099;28;20056;-82
2023/03/01 11:03:34;;;;;;;23.58;13.40;;;;;;;;;;5003814;28;20022;-82
2023/03/01 11:06:02;;;;;;;21.40;12.50;;;;;;;;;;4986428;28;20034;-82
2023/03/01 11:08:31;;;;;;;24.58;13.15;;;;;;;;;;5000404;28;20030;-82
2023/03/01 11:11:08;;;;;;;19.77;12.55;;;;;;;;;;5009142;28;20038;-81
2023/03/01 11:13:34;;;;;;;22.45;13.05;;;;;;;;;;5010978;28;20507;-82
2023/03/01 11:16:01;;;;;;;22.63;12.45;;;;;;;;;;5009453;28;20030;-82
2023/03/01 11:18:30;;;;;;;21.67;12.43;;;;;;;;;;5005252;28;20040;-82
2023/03/01 11:20:57;;;;;;;19.58;11.82;;;;;;;;;;5014133;28;20026;-82
2023/03/01 11:23:23;;;;;;;22.17;11.35;;;;;;;;;;5009854;28;20054;-82
2023/03/01 11:25:54;;;;;;;16.60;11.30;;;;;;;;;;5004124;28;20088;-81
2023/03/01 11:28:22;;;;;;;21.67;11.43;;;;;;;;;;5021287;28;20015;-81
2023/03/01 11:30:53;;;;;;;20.00;12.02;;;;;;;;;;5009825;28;20026;-83
2023/03/01 11:33:37;;;;;;;22.52;12.57;;;;;;;;;;4979966;28;20030;-82
2023/03/01 11:36:07;;;;;;;19.50;10.50;;;;;;;;;;4982312;28;20516;-82
2023/03/01 11:38:35;;;;;;;17.52;10.18;;;;;;;;;;4984237;28;20058;-82
2023/03/01 11:41:03;;;;;;;21.75;11.27;;;;;;;;;;4990926;28;20041;-83
2023/03/01 11:43:41;;;;;;;16.33;10.65;;;;;;;;;;4983841;28;20069;-83
2023/03/01 11:46:07;;;;;;;20.35;11.00;;;;;;;;;;5001309;28;20022;-82
2023/03/01 11:48:39;;;;;;;21.77;11.27;;;;;;;;;;5001420;28;20065;-83
2023/03/01 11:51:25;;;;;;;22.08;12.15;;;;;;;;;;5004450;28;20062;-83
2023/03/01 11:54:00;;;;;;;19.55;11.25;;;;;;;;;;4984731;28;20049;-83
2023/03/01 11:56:33;;;;;;;19.02;11.18;;;;;;;;;;4982988;28;20402;-83
2023/03/01 11:59:18;;;;;;;18.65;10.75;;;;;;;;;;5002545;28;20032;-82
2023/03/01 12:01:44;;;;;;;20.38;11.48;;;;;;;;;;5000120;28;20026;-83
2023/03/01 12:04:26;;;;;;;20.55;10.98;;;;;;;;;;4996369;28;20522;-82
2023/03/01 12:07:02;;;;;;;21.50;11.27;;;;;;;;;;5007001;28;20030;-81
2023/03/01 12:09:28;;;;;;;19.38;11.10;;;;;;;;;;5013888;28;20133;-81
2023/03/01 12:12:05;;;;;;;22.52;12.20;;;;;;;;;;5006010;28;20452;-83
2023/03/01 12:14:50;;;;;;;20.00;11.68;;;;;;;;;;4983337;28;20075;-82
2023/03/01 12:17:19;;;;;;;18.65;11.18;;;;;;;;;;5017825;28;20503;-82
2023/03/01 12:19:54;;;;;;;18.00;10.20;;;;;;;;;;5003884;28;20049;-82
2023/03/01 12:22:39;;;;;;;18.20;10.40;;;;;;;;;;5010420;28;20019;-82
2023/03/01 12:25:13;;;;;;;19.63;10.25;;;;;;;;;;4988599;28;20022;-82
2023/03/01 12:28:08;;;;;;;17.95;10.52;;;;;;;;;;4983165;28;20033;-82
2023/03/01 12:30:57;;;;;;;15.93;10.10;;;;;;;;;;4946135;28;20079;-82
2023/03/01 12:33:29;;;;;;;17.45;10.90;;;;;;;;;;5004251;28;20042;-81
2023/03/01 12:36:07;;;;;;;22.65;11.43;;;;;;;;;;4982538;28;20030;-82
2023/03/01 12:38:52;;;;;;;17.70;10.57;;;;;;;;;;5005143;28;20023;-81
2023/03/01 12:41:32;;;;;;;18.83;10.57;;;;;;;;;;4983075;28;20040;-80
2023/03/01 12:44:06;;;;;;;20.45;10.63;;;;;;;;;;5002970;28;20129;-81
2023/03/01 12:46:39;;;;;;;18.65;10.50;;;;;;;;;;4990866;28;20037;-81
2023/03/01 12:49:14;;;;;;;21.17;11.73;;;;;;;;;;5009219;28;20061;-82
2023/03/01 12:51:40;;;;;;;17.58;10.77;;;;;;;;;;5001070;28;20034;-81
2023/03/01 12:54:20;;;;;;;20.60;12.10;;;;;;;;;;4992426;28;20038;-81
2023/03/01 12:56:52;;;;;;;18.10;12.82;;;;;;;;;;5016623;28;20026;-82
2023/03/01 12:59:38;;;;;;;19.50;12.03;;;;;;;;;;5006357;28;20023;-81
2023/03/01 13:02:10;;;;;;;19.65;13.02;;;;;;;;;;4988582;28;20018;-81
2023/03/01 13:04:36;;;;;;;22.92;12.15;;;;;;;;;;5022667;28;20101;-82
2023/03/01 13:07:16;;;;;;;23.10;12.80;;;;;;;;;;4994196;28;20030;-81
2023/03/01 13:09:48;;;;;;;19.48;12.73;;;;;;;;;;5022720;28;20040;-80
2023/03/01 13:12:33;;;;;;;21.92;12.18;;;;;;;;;;4985593;28;20116;-81
2023/03/01 13:14:59;;;;;;;21.48;12.50;;;;;;;;;;5008590;28;20040;-82
2023/03/01 13:30:30;;;;;;;24.33;14.32;;;;;;;;;;5080327;28;20402;-80
2023/03/01 13:33:16;;;;;;;21.25;14.15;;;;;;;;;;5066664;28;20096;-81
2023/03/01 13:48:23;;;;;;;25.48;15.27;;;;;;;;;;5049651;28;20419;-81
2023/03/01 13:50:58;;;;;;;25.70;15.38;;;;;;;;;;5037624;28;20064;-80
2023/03/01 13:53:26;;;;;;;20.90;12.68;;;;;;;;;;5021309;28;20055;-82
2023/03/01 13:55:56;;;;;;;21.95;13.23;;;;;;;;;;5019330;28;20033;-82
2023/03/01 13:58:30;;;;;;;22.80;12.85;;;;;;;;;;5011806;28;20030;-81
2023/03/01 14:01:04;;;;;;;23.30;14.32;;;;;;;;;;5022207;28;20037;-82
2023/03/01 14:03:32;;;;;;;23.70;13.60;;;;;;;;;;5021484;28;20018;-80
2023/03/01 14:06:00;;;;;;;23.02;12.77;;;;;;;;;;5030666;28;20369;-79
2023/03/01 14:08:27;;;;;;;21.27;12.65;;;;;;;;;;5023847;28;20113;-79
2023/03/01 14:11:12;;;;;;;19.83;12.82;;;;;;;;;;5020304;28;20041;-79
2023/03/01 14:14:04;;;;;;;21.98;13.07;;;;;;;;;;5017898;28;20037;-81
2023/03/01 14:16:30;;;;;;;20.80;12.35;;;;;;;;;;5021207;28;20055;-79
2023/03/01 14:19:09;;;;;;;19.90;12.70;;;;;;;;;;5015768;28;20116;-81
2023/03/01 14:21:36;;;;;;;20.58;12.48;;;;;;;;;;5017793;28;20036;-81
2023/03/01 14:24:02;;;;;;;20.80;12.85;;;;;;;;;;5014073;28;20033;-81
2023/03/01 14:26:28;;;;;;;21.13;12.45;;;;;;;;;;5024321;28;20030;-81
2023/03/01 14:28:55;;;;;;;23.38;13.18;;;;;;;;;;5040544;28;20510;-81
2023/03/01 14:31:33;;;;;;;18.80;12.32;;;;;;;;;;5026053;28;20108;-81
2023/03/01 14:34:00;;;;;;;22.02;13.43;;;;;;;;;;5015400;28;20029;-81
2023/03/01 14:36:33;;;;;;;20.60;12.02;;;;;;;;;;5024419;28;20764;-81
2023/03/01 14:39:04;;;;;;;20.27;12.43;;;;;;;;;;5021160;28;20049;-80
2023/03/01 14:41:32;;;;;;;21.15;13.07;;;;;;;;;;5025604;28;20041;-81
2023/03/01 14:43:58;;;;;;;19.05;12.80;;;;;;;;;;5016469;28;20084;-81
2023/03/01 14:46:24;;;;;;;19.88;12.32;;;;;;;;;;5022507;28;20513;-83
2023/03/01 14:48:55;;;;;;;22.42;12.95;;;;;;;;;;5008944;28;20026;-82
2023/03/01 14:51:21;;;;;;;22.02;13.82;;;;;;;;;;5004401;28;20018;-82
2023/03/01 14:53:47;;;;;;;20.63;12.63;;;;;;;;;;5004127;28;20026;-80
2023/03/01 14:56:17;;;;;;;22.50;12.55;;;;;;;;;;5002885;28;20034;-81
2023/03/01 14:58:43;;;;;;;19.33;12.15;;;;;;;;;;5002441;28;20474;-81
2023/03/01 15:01:13;;;;;;;20.15;12.00;;;;;;;;;;5005129;28;20113;-80
2023/03/01 15:03:43;;;;;;;19.35;11.82;;;;;;;;;;5022750;28;20014;-82
2023/03/01 15:06:10;;;;;;;18.80;12.20;;;;;;;;;;5024302;28;20037;-81
2023/03/01 15:08:37;;;;;;;19.00;11.30;;;;;;;;;;4997928;28;20148;-82
2023/03/01 15:11:20;;;;;;;23.15;12.63;;;;;;;;;;5004006;28;20264;-81
2023/03/01 15:13:47;;;;;;;20.85;12.27;;;;;;;;;;5006081;28;20117;-81